Industry, Texas
Current Conditions -  °F | °C
As of 10:55 AM on Friday 24 Oct 2014 (Local Time) from K11R Reporting Station
Clear Clear  
Wind Chill: 70°   Ceiling: Unl
Heat Index: 70°   Visibility: 10mi
Dew Point: 54°   Wind: 0mph
Humidity: 57%   Direction: NA
Pressure: 30.2"   Gusts: NA
Location:  29.97°N, 96.5°W
Report Text: K11R 241555Z AUTO 00000KT 10SM CLR 21/12 A3020 RMK AO2 T02110123
Loading
Personal Weather Stations






























Interactive Weather Map
Tropical Storm Tracking
New forecast layout! Learn more

10-Day Weather Forecast

Advertisements
Track Severe Weather on mobile